sensor_id;sensor_type;location;lat;lon;timestamp;temperature;humidity
76996;DHT22;65929;49.062;10.338;2024-02-28T00:00:18;5.10;86.40
76996;DHT22;65929;49.062;10.338;2024-02-28T00:01:19;5.00;86.40
76996;DHT22;65929;49.062;10.338;2024-02-28T00:02:20;5.00;86.50
76996;DHT22;65929;49.062;10.338;2024-02-28T00:03:21;5.00;86.70
76996;DHT22;65929;49.062;10.338;2024-02-28T00:04:23;5.00;86.80
76996;DHT22;65929;49.062;10.338;2024-02-28T00:05:24;5.00;87.00
76996;DHT22;65929;49.062;10.338;2024-02-28T00:06:25;4.90;87.10
76996;DHT22;65929;49.062;10.338;2024-02-28T00:07:26;4.90;87.10
76996;DHT22;65929;49.062;10.338;2024-02-28T00:08:27;4.90;87.10
76996;DHT22;65929;49.062;10.338;2024-02-28T00:09:28;4.90;87.10
76996;DHT22;65929;49.062;10.338;2024-02-28T00:10:29;4.90;87.10
76996;DHT22;65929;49.062;10.338;2024-02-28T00:11:30;4.90;87.20
76996;DHT22;65929;49.062;10.338;2024-02-28T00:12:31;4.90;87.20
76996;DHT22;65929;49.062;10.338;2024-02-28T00:13:32;4.90;87.20
76996;DHT22;65929;49.062;10.338;2024-02-28T00:14:34;4.90;87.30
76996;DHT22;65929;49.062;10.338;2024-02-28T00:15:35;4.90;87.40
76996;DHT22;65929;49.062;10.338;2024-02-28T00:16:36;4.90;87.50
76996;DHT22;65929;49.062;10.338;2024-02-28T00:17:38;4.90;87.50
76996;DHT22;65929;49.062;10.338;2024-02-28T00:18:41;4.90;87.50
76996;DHT22;65929;49.062;10.338;2024-02-28T00:19:42;4.90;87.60
76996;DHT22;65929;49.062;10.338;2024-02-28T00:20:44;4.90;87.50
76996;DHT22;65929;49.062;10.338;2024-02-28T00:21:45;4.90;87.50
76996;DHT22;65929;49.062;10.338;2024-02-28T00:22:46;4.80;87.30
76996;DHT22;65929;49.062;10.338;2024-02-28T00:23:47;4.90;87.50
76996;DHT22;65929;49.062;10.338;2024-02-28T00:24:47;4.80;87.50
76996;DHT22;65929;49.062;10.338;2024-02-28T00:25:48;4.80;87.50
76996;DHT22;65929;49.062;10.338;2024-02-28T00:26:49;4.80;87.50
76996;DHT22;65929;49.062;10.338;2024-02-28T00:27:50;4.70;87.60
76996;DHT22;65929;49.062;10.338;2024-02-28T00:28:51;4.70;87.60
76996;DHT22;65929;49.062;10.338;2024-02-28T00:29:53;4.80;87.60
76996;DHT22;65929;49.062;10.338;2024-02-28T00:30:54;4.80;87.60
76996;DHT22;65929;49.062;10.338;2024-02-28T00:31:55;4.80;87.60
76996;DHT22;65929;49.062;10.338;2024-02-28T00:32:56;4.70;87.60
76996;DHT22;65929;49.062;10.338;2024-02-28T00:33:57;4.80;87.50
76996;DHT22;65929;49.062;10.338;2024-02-28T00:34:58;4.70;87.50
76996;DHT22;65929;49.062;10.338;2024-02-28T00:35:59;4.70;87.50
76996;DHT22;65929;49.062;10.338;2024-02-28T00:36:59;4.70;87.50
76996;DHT22;65929;49.062;10.338;2024-02-28T00:38:00;4.70;87.60
76996;DHT22;65929;49.062;10.338;2024-02-28T00:39:01;4.70;87.70
76996;DHT22;65929;49.062;10.338;2024-02-28T00:40:03;4.70;87.70
76996;DHT22;65929;49.062;10.338;2024-02-28T00:41:04;4.70;87.70
76996;DHT22;65929;49.062;10.338;2024-02-28T00:42:06;4.70;87.80
76996;DHT22;65929;49.062;10.338;2024-02-28T00:43:07;4.70;87.90
76996;DHT22;65929;49.062;10.338;2024-02-28T00:44:07;4.70;87.90
76996;DHT22;65929;49.062;10.338;2024-02-28T00:45:10;4.70;88.00
76996;DHT22;65929;49.062;10.338;2024-02-28T00:46:11;4.70;88.00
76996;DHT22;65929;49.062;10.338;2024-02-28T00:47:12;4.70;88.00
76996;DHT22;65929;49.062;10.338;2024-02-28T00:48:14;4.70;87.90
76996;DHT22;65929;49.062;10.338;2024-02-28T00:49:15;4.70;88.00
76996;DHT22;65929;49.062;10.338;2024-02-28T00:50:16;4.70;87.90
76996;DHT22;65929;49.062;10.338;2024-02-28T00:51:17;4.70;87.70
76996;DHT22;65929;49.062;10.338;2024-02-28T00:52:18;4.70;87.80
76996;DHT22;65929;49.062;10.338;2024-02-28T00:53:20;4.70;87.80
76996;DHT22;65929;49.062;10.338;2024-02-28T00:54:21;4.70;87.70
76996;DHT22;65929;49.062;10.338;2024-02-28T00:55:24;4.70;87.60
76996;DHT22;65929;49.062;10.338;2024-02-28T00:56:25;4.70;87.70
76996;DHT22;65929;49.062;10.338;2024-02-28T00:57:27;4.70;87.70
76996;DHT22;65929;49.062;10.338;2024-02-28T00:58:28;4.70;87.70
76996;DHT22;65929;49.062;10.338;2024-02-28T00:59:30;4.70;87.90
76996;DHT22;65929;49.062;10.338;2024-02-28T01:00:32;4.70;87.90
76996;DHT22;65929;49.062;10.338;2024-02-28T01:01:33;4.70;87.90
76996;DHT22;65929;49.062;10.338;2024-02-28T01:02:34;4.70;88.00
76996;DHT22;65929;49.062;10.338;2024-02-28T01:03:35;4.70;88.00
76996;DHT22;65929;49.062;10.338;2024-02-28T01:14:06;4.70;87.80
76996;DHT22;65929;49.062;10.338;2024-02-28T01:15:08;4.70;87.80
76996;DHT22;65929;49.062;10.338;2024-02-28T01:16:10;4.70;87.80
76996;DHT22;65929;49.062;10.338;2024-02-28T01:17:11;4.70;87.70
76996;DHT22;65929;49.062;10.338;2024-02-28T01:18:12;4.70;87.80
76996;DHT22;65929;49.062;10.338;2024-02-28T01:19:13;4.70;87.90
76996;DHT22;65929;49.062;10.338;2024-02-28T01:20:14;4.70;87.90
76996;DHT22;65929;49.062;10.338;2024-02-28T01:21:15;4.70;88.00
76996;DHT22;65929;49.062;10.338;2024-02-28T01:22:16;4.70;88.00
76996;DHT22;65929;49.062;10.338;2024-02-28T01:23:17;4.70;88.00
76996;DHT22;65929;49.062;10.338;2024-02-28T01:24:18;4.70;87.90
76996;DHT22;65929;49.062;10.338;2024-02-28T01:25:19;4.70;87.80
76996;DHT22;65929;49.062;10.338;2024-02-28T01:26:20;4.70;87.80
76996;DHT22;65929;49.062;10.338;2024-02-28T01:27:22;4.70;87.80
76996;DHT22;65929;49.062;10.338;2024-02-28T01:28:23;4.60;87.80
76996;DHT22;65929;49.062;10.338;2024-02-28T01:29:24;4.60;87.90
76996;DHT22;65929;49.062;10.338;2024-02-28T01:30:25;4.60;88.10
76996;DHT22;65929;49.062;10.338;2024-02-28T01:31:27;4.60;88.10
76996;DHT22;65929;49.062;10.338;2024-02-28T01:32:29;4.50;88.10
76996;DHT22;65929;49.062;10.338;2024-02-28T01:33:30;4.50;88.10
76996;DHT22;65929;49.062;10.338;2024-02-28T01:34:31;4.50;88.20
76996;DHT22;65929;49.062;10.338;2024-02-28T01:35:32;4.50;88.20
76996;DHT22;65929;49.062;10.338;2024-02-28T01:36:33;4.50;88.20
76996;DHT22;65929;49.062;10.338;2024-02-28T01:37:34;4.50;88.40
76996;DHT22;65929;49.062;10.338;2024-02-28T01:38:34;4.50;88.50
76996;DHT22;65929;49.062;10.338;2024-02-28T01:39:35;4.50;88.40
76996;DHT22;65929;49.062;10.338;2024-02-28T01:40:36;4.50;88.50
76996;DHT22;65929;49.062;10.338;2024-02-28T01:41:37;4.50;88.40
76996;DHT22;65929;49.062;10.338;2024-02-28T01:42:38;4.50;88.40
76996;DHT22;65929;49.062;10.338;2024-02-28T01:43:39;4.50;88.50
76996;DHT22;65929;49.062;10.338;2024-02-28T01:44:43;4.50;88.50
76996;DHT22;65929;49.062;10.338;2024-02-28T01:45:44;4.50;88.60
76996;DHT22;65929;49.062;10.338;2024-02-28T01:46:47;4.50;88.60
76996;DHT22;65929;49.062;10.338;2024-02-28T01:47:48;4.50;88.60
76996;DHT22;65929;49.062;10.338;2024-02-28T01:48:50;4.50;88.50
76996;DHT22;65929;49.062;10.338;2024-02-28T01:49:51;4.50;88.40
76996;DHT22;65929;49.062;10.338;2024-02-28T01:50:54;4.50;88.60
76996;DHT22;65929;49.062;10.338;2024-02-28T01:51:55;4.50;88.50
76996;DHT22;65929;49.062;10.338;2024-02-28T01:52:57;4.50;88.50
76996;DHT22;65929;49.062;10.338;2024-02-28T01:53:59;4.50;88.60
76996;DHT22;65929;49.062;10.338;2024-02-28T01:55:00;4.40;88.60
76996;DHT22;65929;49.062;10.338;2024-02-28T01:56:02;4.40;88.70
76996;DHT22;65929;49.062;10.338;2024-02-28T01:57:03;4.40;88.80
76996;DHT22;65929;49.062;10.338;2024-02-28T01:58:04;4.40;88.80
76996;DHT22;65929;49.062;10.338;2024-02-28T01:59:06;4.40;88.90
76996;DHT22;65929;49.062;10.338;2024-02-28T02:00:08;4.40;89.00
76996;DHT22;65929;49.062;10.338;2024-02-28T02:01:09;4.40;89.00
76996;DHT22;65929;49.062;10.338;2024-02-28T02:02:13;4.40;89.00
76996;DHT22;65929;49.062;10.338;2024-02-28T02:03:14;4.40;88.80
76996;DHT22;65929;49.062;10.338;2024-02-28T02:04:15;4.40;88.90
76996;DHT22;65929;49.062;10.338;2024-02-28T02:05:15;4.40;88.90
76996;DHT22;65929;49.062;10.338;2024-02-28T02:06:19;4.40;88.80
76996;DHT22;65929;49.062;10.338;2024-02-28T02:07:20;4.50;89.00
76996;DHT22;65929;49.062;10.338;2024-02-28T02:08:21;4.40;88.80
76996;DHT22;65929;49.062;10.338;2024-02-28T02:09:24;4.50;88.90
76996;DHT22;65929;49.062;10.338;2024-02-28T02:10:26;4.50;88.80
76996;DHT22;65929;49.062;10.338;2024-02-28T02:11:27;4.40;88.90
76996;DHT22;65929;49.062;10.338;2024-02-28T02:12:29;4.50;88.80
76996;DHT22;65929;49.062;10.338;2024-02-28T02:13:30;4.40;88.80
76996;DHT22;65929;49.062;10.338;2024-02-28T02:14:30;4.40;88.70
76996;DHT22;65929;49.062;10.338;2024-02-28T02:15:31;4.50;88.70
76996;DHT22;65929;49.062;10.338;2024-02-28T02:16:32;4.50;88.70
76996;DHT22;65929;49.062;10.338;2024-02-28T02:17:35;4.40;88.70
76996;DHT22;65929;49.062;10.338;2024-02-28T02:18:35;4.40;88.80
76996;DHT22;65929;49.062;10.338;2024-02-28T02:19:36;4.40;88.90
76996;DHT22;65929;49.062;10.338;2024-02-28T02:20:43;4.40;89.00
76996;DHT22;65929;49.062;10.338;2024-02-28T02:21:49;4.40;88.90
76996;DHT22;65929;49.062;10.338;2024-02-28T02:22:53;4.40;88.90
76996;DHT22;65929;49.062;10.338;2024-02-28T02:23:53;4.40;88.80
76996;DHT22;65929;49.062;10.338;2024-02-28T02:24:54;4.40;88.80
76996;DHT22;65929;49.062;10.338;2024-02-28T02:25:55;4.40;88.90
76996;DHT22;65929;49.062;10.338;2024-02-28T02:26:57;4.40;89.00
76996;DHT22;65929;49.062;10.338;2024-02-28T02:27:59;4.40;89.00
76996;DHT22;65929;49.062;10.338;2024-02-28T02:29:00;4.40;89.00
76996;DHT22;65929;49.062;10.338;2024-02-28T02:30:00;4.40;88.90
76996;DHT22;65929;49.062;10.338;2024-02-28T02:31:02;4.40;89.00
76996;DHT22;65929;49.062;10.338;2024-02-28T02:32:03;4.30;89.00
76996;DHT22;65929;49.062;10.338;2024-02-28T02:33:04;4.30;89.20
76996;DHT22;65929;49.062;10.338;2024-02-28T02:34:05;4.30;89.20
76996;DHT22;65929;49.062;10.338;2024-02-28T02:35:07;4.30;89.20
76996;DHT22;65929;49.062;10.338;2024-02-28T02:36:08;4.30;89.30
76996;DHT22;65929;49.062;10.338;2024-02-28T02:37:09;4.30;89.50
76996;DHT22;65929;49.062;10.338;2024-02-28T02:38:11;4.30;89.40
76996;DHT22;65929;49.062;10.338;2024-02-28T02:39:12;4.30;89.50
76996;DHT22;65929;49.062;10.338;2024-02-28T02:40:13;4.20;89.50
76996;DHT22;65929;49.062;10.338;2024-02-28T02:41:14;4.30;89.50
76996;DHT22;65929;49.062;10.338;2024-02-28T02:42:15;4.30;89.50
76996;DHT22;65929;49.062;10.338;2024-02-28T02:43:16;4.20;89.40
76996;DHT22;65929;49.062;10.338;2024-02-28T02:44:17;4.20;89.40
76996;DHT22;65929;49.062;10.338;2024-02-28T02:45:18;4.20;89.50
76996;DHT22;65929;49.062;10.338;2024-02-28T02:46:19;4.20;89.50
76996;DHT22;65929;49.062;10.338;2024-02-28T02:47:20;4.20;89.60
76996;DHT22;65929;49.062;10.338;2024-02-28T02:48:21;4.20;89.70
76996;DHT22;65929;49.062;10.338;2024-02-28T02:49:22;4.20;89.80
76996;DHT22;65929;49.062;10.338;2024-02-28T02:50:22;4.20;89.70
76996;DHT22;65929;49.062;10.338;2024-02-28T02:51:23;4.20;90.00
76996;DHT22;65929;49.062;10.338;2024-02-28T02:52:26;4.10;89.90
76996;DHT22;65929;49.062;10.338;2024-02-28T02:53:28;4.10;90.00
76996;DHT22;65929;49.062;10.338;2024-02-28T02:54:29;4.10;90.10
76996;DHT22;65929;49.062;10.338;2024-02-28T02:55:30;4.10;90.10
76996;DHT22;65929;49.062;10.338;2024-02-28T02:56:31;4.10;90.20
76996;DHT22;65929;49.062;10.338;2024-02-28T02:57:32;4.10;90.20
76996;DHT22;65929;49.062;10.338;2024-02-28T02:58:33;4.10;90.20
76996;DHT22;65929;49.062;10.338;2024-02-28T02:59:36;4.10;90.20
76996;DHT22;65929;49.062;10.338;2024-02-28T03:00:36;4.10;90.30
76996;DHT22;65929;49.062;10.338;2024-02-28T03:01:38;4.10;90.30
76996;DHT22;65929;49.062;10.338;2024-02-28T03:02:38;4.10;90.40
76996;DHT22;65929;49.062;10.338;2024-02-28T03:03:40;4.10;90.40
76996;DHT22;65929;49.062;10.338;2024-02-28T03:04:41;4.10;90.40
76996;DHT22;65929;49.062;10.338;2024-02-28T03:05:42;4.10;90.40
76996;DHT22;65929;49.062;10.338;2024-02-28T03:06:43;4.10;90.30
76996;DHT22;65929;49.062;10.338;2024-02-28T03:07:44;4.10;90.30
76996;DHT22;65929;49.062;10.338;2024-02-28T03:08:46;4.10;90.30
76996;DHT22;65929;49.062;10.338;2024-02-28T03:09:47;4.10;90.30
76996;DHT22;65929;49.062;10.338;2024-02-28T03:10:48;4.10;90.40
76996;DHT22;65929;49.062;10.338;2024-02-28T03:11:49;4.10;90.40
76996;DHT22;65929;49.062;10.338;2024-02-28T03:12:50;4.10;90.20
76996;DHT22;65929;49.062;10.338;2024-02-28T03:13:51;4.10;90.20
76996;DHT22;65929;49.062;10.338;2024-02-28T03:14:52;4.10;90.20
76996;DHT22;65929;49.062;10.338;2024-02-28T03:15:52;4.20;90.20
76996;DHT22;65929;49.062;10.338;2024-02-28T03:16:54;4.10;90.20
76996;DHT22;65929;49.062;10.338;2024-02-28T03:17:54;4.20;90.20
76996;DHT22;65929;49.062;10.338;2024-02-28T03:18:56;4.20;90.20
76996;DHT22;65929;49.062;10.338;2024-02-28T03:19:57;4.20;90.10
76996;DHT22;65929;49.062;10.338;2024-02-28T03:20:58;4.20;90.20
76996;DHT22;65929;49.062;10.338;2024-02-28T03:21:59;4.20;90.20
76996;DHT22;65929;49.062;10.338;2024-02-28T03:23:00;4.20;90.30
76996;DHT22;65929;49.062;10.338;2024-02-28T03:24:02;4.20;90.30
76996;DHT22;65929;49.062;10.338;2024-02-28T03:25:04;4.10;90.30
76996;DHT22;65929;49.062;10.338;2024-02-28T03:26:05;4.20;90.30
76996;DHT22;65929;49.062;10.338;2024-02-28T03:27:06;4.20;90.20
76996;DHT22;65929;49.062;10.338;2024-02-28T03:28:07;4.20;90.10
76996;DHT22;65929;49.062;10.338;2024-02-28T03:29:07;4.20;90.10
76996;DHT22;65929;49.062;10.338;2024-02-28T03:30:09;4.20;90.20
76996;DHT22;65929;49.062;10.338;2024-02-28T03:31:10;4.10;90.20
76996;DHT22;65929;49.062;10.338;2024-02-28T03:32:11;4.10;90.20
76996;DHT22;65929;49.062;10.338;2024-02-28T03:33:12;4.10;90.40
76996;DHT22;65929;49.062;10.338;2024-02-28T03:34:13;4.10;90.30
76996;DHT22;65929;49.062;10.338;2024-02-28T03:35:14;4.10;90.50
76996;DHT22;65929;49.062;10.338;2024-02-28T03:36:15;4.10;90.50
76996;DHT22;65929;49.062;10.338;2024-02-28T03:37:16;4.10;90.50
76996;DHT22;65929;49.062;10.338;2024-02-28T03:38:16;4.10;90.60
76996;DHT22;65929;49.062;10.338;2024-02-28T03:39:19;4.10;90.60
76996;DHT22;65929;49.062;10.338;2024-02-28T03:40:20;4.10;90.50
76996;DHT22;65929;49.062;10.338;2024-02-28T03:41:21;4.10;90.60
76996;DHT22;65929;49.062;10.338;2024-02-28T03:42:22;4.10;90.60
76996;DHT22;65929;49.062;10.338;2024-02-28T03:43:23;4.10;90.60
76996;DHT22;65929;49.062;10.338;2024-02-28T03:44:24;4.10;90.60
76996;DHT22;65929;49.062;10.338;2024-02-28T03:45:28;4.10;90.70
76996;DHT22;65929;49.062;10.338;2024-02-28T03:46:29;4.10;90.50
76996;DHT22;65929;49.062;10.338;2024-02-28T03:47:30;4.10;90.70
76996;DHT22;65929;49.062;10.338;2024-02-28T03:48:31;4.10;90.70
76996;DHT22;65929;49.062;10.338;2024-02-28T03:49:32;4.10;90.60
76996;DHT22;65929;49.062;10.338;2024-02-28T03:50:33;4.10;90.50
76996;DHT22;65929;49.062;10.338;2024-02-28T03:51:39;4.10;90.40
76996;DHT22;65929;49.062;10.338;2024-02-28T03:52:40;4.20;90.50
76996;DHT22;65929;49.062;10.338;2024-02-28T03:53:41;4.20;90.40
76996;DHT22;65929;49.062;10.338;2024-02-28T03:54:44;4.20;90.30
76996;DHT22;65929;49.062;10.338;2024-02-28T03:55:45;4.20;90.30
76996;DHT22;65929;49.062;10.338;2024-02-28T03:56:46;4.20;90.30
76996;DHT22;65929;49.062;10.338;2024-02-28T03:57:47;4.20;90.30
76996;DHT22;65929;49.062;10.338;2024-02-28T03:58:48;4.10;90.30
76996;DHT22;65929;49.062;10.338;2024-02-28T03:59:49;4.20;90.40
76996;DHT22;65929;49.062;10.338;2024-02-28T04:00:50;4.20;90.40
76996;DHT22;65929;49.062;10.338;2024-02-28T04:01:51;4.20;90.40
76996;DHT22;65929;49.062;10.338;2024-02-28T04:02:52;4.20;90.30
76996;DHT22;65929;49.062;10.338;2024-02-28T04:03:53;4.20;90.40
76996;DHT22;65929;49.062;10.338;2024-02-28T04:04:54;4.20;90.40
76996;DHT22;65929;49.062;10.338;2024-02-28T04:05:55;4.20;90.30
76996;DHT22;65929;49.062;10.338;2024-02-28T04:06:56;4.20;90.30
76996;DHT22;65929;49.062;10.338;2024-02-28T04:07:57;4.20;90.30
76996;DHT22;65929;49.062;10.338;2024-02-28T04:08:58;4.20;90.40
76996;DHT22;65929;49.062;10.338;2024-02-28T04:10:00;4.20;90.30
76996;DHT22;65929;49.062;10.338;2024-02-28T04:11:01;4.20;90.30
76996;DHT22;65929;49.062;10.338;2024-02-28T04:12:03;4.20;90.30
76996;DHT22;65929;49.062;10.338;2024-02-28T04:13:04;4.20;90.30
76996;DHT22;65929;49.062;10.338;2024-02-28T04:14:05;4.20;90.30
76996;DHT22;65929;49.062;10.338;2024-02-28T04:15:06;4.20;90.20
76996;DHT22;65929;49.062;10.338;2024-02-28T04:16:08;4.20;90.30
76996;DHT22;65929;49.062;10.338;2024-02-28T04:17:09;4.20;90.20
76996;DHT22;65929;49.062;10.338;2024-02-28T04:18:10;4.20;90.30
76996;DHT22;65929;49.062;10.338;2024-02-28T04:19:11;4.20;90.40
76996;DHT22;65929;49.062;10.338;2024-02-28T04:20:13;4.20;90.40
76996;DHT22;65929;49.062;10.338;2024-02-28T04:21:14;4.20;90.40
76996;DHT22;65929;49.062;10.338;2024-02-28T04:22:15;4.20;90.40
76996;DHT22;65929;49.062;10.338;2024-02-28T04:23:15;4.10;90.40
76996;DHT22;65929;49.062;10.338;2024-02-28T04:24:17;4.10;90.50
76996;DHT22;65929;49.062;10.338;2024-02-28T04:25:20;4.10;90.60
76996;DHT22;65929;49.062;10.338;2024-02-28T04:26:21;4.10;90.60
76996;DHT22;65929;49.062;10.338;2024-02-28T04:27:21;4.20;90.60
76996;DHT22;65929;49.062;10.338;2024-02-28T04:28:23;4.10;90.60
76996;DHT22;65929;49.062;10.338;2024-02-28T04:29:23;4.10;90.50
76996;DHT22;65929;49.062;10.338;2024-02-28T04:30:24;4.20;90.50
76996;DHT22;65929;49.062;10.338;2024-02-28T04:31:25;4.10;90.50
76996;DHT22;65929;49.062;10.338;2024-02-28T04:32:26;4.10;90.50
76996;DHT22;65929;49.062;10.338;2024-02-28T04:33:27;4.10;90.50
76996;DHT22;65929;49.062;10.338;2024-02-28T04:34:28;4.10;90.50
76996;DHT22;65929;49.062;10.338;2024-02-28T04:35:29;4.10;90.70
76996;DHT22;65929;49.062;10.338;2024-02-28T04:36:30;4.10;90.90
76996;DHT22;65929;49.062;10.338;2024-02-28T04:37:30;4.10;90.90
76996;DHT22;65929;49.062;10.338;2024-02-28T04:38:31;4.10;91.00
76996;DHT22;65929;49.062;10.338;2024-02-28T04:39:32;4.10;90.90
76996;DHT22;65929;49.062;10.338;2024-02-28T04:40:34;4.10;90.90
76996;DHT22;65929;49.062;10.338;2024-02-28T04:41:36;4.10;90.90
76996;DHT22;65929;49.062;10.338;2024-02-28T04:42:37;4.10;90.90
76996;DHT22;65929;49.062;10.338;2024-02-28T04:43:38;4.10;90.90
76996;DHT22;65929;49.062;10.338;2024-02-28T04:44:40;4.10;90.90
76996;DHT22;65929;49.062;10.338;2024-02-28T04:45:41;4.10;90.90
76996;DHT22;65929;49.062;10.338;2024-02-28T04:46:42;4.10;90.80
76996;DHT22;65929;49.062;10.338;2024-02-28T04:47:43;4.10;90.80
76996;DHT22;65929;49.062;10.338;2024-02-28T04:48:44;4.10;90.90
76996;DHT22;65929;49.062;10.338;2024-02-28T04:49:45;4.10;91.00
76996;DHT22;65929;49.062;10.338;2024-02-28T04:50:45;4.10;91.00
76996;DHT22;65929;49.062;10.338;2024-02-28T04:51:47;4.10;90.90
76996;DHT22;65929;49.062;10.338;2024-02-28T04:52:48;4.10;90.90
76996;DHT22;65929;49.062;10.338;2024-02-28T04:53:49;4.10;90.90
76996;DHT22;65929;49.062;10.338;2024-02-28T04:54:50;4.10;90.80
76996;DHT22;65929;49.062;10.338;2024-02-28T04:55:52;4.10;90.80
76996;DHT22;65929;49.062;10.338;2024-02-28T04:56:53;4.10;90.80
76996;DHT22;65929;49.062;10.338;2024-02-28T04:57:54;4.10;90.80
76996;DHT22;65929;49.062;10.338;2024-02-28T04:58:55;4.10;90.80
76996;DHT22;65929;49.062;10.338;2024-02-28T04:59:56;4.10;90.80
76996;DHT22;65929;49.062;10.338;2024-02-28T05:00:56;4.10;90.80
76996;DHT22;65929;49.062;10.338;2024-02-28T05:01:57;4.10;90.80
76996;DHT22;65929;49.062;10.338;2024-02-28T05:02:58;4.10;90.80
76996;DHT22;65929;49.062;10.338;2024-02-28T05:03:59;4.10;90.90
76996;DHT22;65929;49.062;10.338;2024-02-28T05:05:00;4.10;90.90
76996;DHT22;65929;49.062;10.338;2024-02-28T05:06:01;4.10;90.90
76996;DHT22;65929;49.062;10.338;2024-02-28T05:07:03;4.10;91.10
76996;DHT22;65929;49.062;10.338;2024-02-28T05:08:05;4.10;91.00
76996;DHT22;65929;49.062;10.338;2024-02-28T05:09:06;4.10;91.00
76996;DHT22;65929;49.062;10.338;2024-02-28T05:10:07;4.10;91.00
76996;DHT22;65929;49.062;10.338;2024-02-28T05:11:10;4.10;91.00
76996;DHT22;65929;49.062;10.338;2024-02-28T05:12:11;4.10;91.10
76996;DHT22;65929;49.062;10.338;2024-02-28T05:13:12;4.10;91.20
76996;DHT22;65929;49.062;10.338;2024-02-28T05:14:13;4.10;91.20
76996;DHT22;65929;49.062;10.338;2024-02-28T05:15:15;4.10;91.20
76996;DHT22;65929;49.062;10.338;2024-02-28T05:16:16;4.00;91.30
76996;DHT22;65929;49.062;10.338;2024-02-28T05:17:17;4.00;91.50
76996;DHT22;65929;49.062;10.338;2024-02-28T05:18:18;4.00;91.60
76996;DHT22;65929;49.062;10.338;2024-02-28T05:19:19;4.00;91.80
76996;DHT22;65929;49.062;10.338;2024-02-28T05:20:20;3.90;91.90
76996;DHT22;65929;49.062;10.338;2024-02-28T05:21:21;3.90;92.00
76996;DHT22;65929;49.062;10.338;2024-02-28T05:22:22;3.90;92.00
76996;DHT22;65929;49.062;10.338;2024-02-28T05:23:23;3.90;92.10
76996;DHT22;65929;49.062;10.338;2024-02-28T05:24:24;3.90;92.10
76996;DHT22;65929;49.062;10.338;2024-02-28T05:25:25;3.90;92.20
76996;DHT22;65929;49.062;10.338;2024-02-28T05:26:27;3.90;92.30
76996;DHT22;65929;49.062;10.338;2024-02-28T05:27:28;3.90;92.40
76996;DHT22;65929;49.062;10.338;2024-02-28T05:28:29;3.90;92.50
76996;DHT22;65929;49.062;10.338;2024-02-28T05:29:30;3.90;92.50
76996;DHT22;65929;49.062;10.338;2024-02-28T05:30:31;3.90;92.50
76996;DHT22;65929;49.062;10.338;2024-02-28T05:31:32;3.90;92.60
76996;DHT22;65929;49.062;10.338;2024-02-28T05:32:33;3.90;92.50
76996;DHT22;65929;49.062;10.338;2024-02-28T05:33:34;3.90;92.60
76996;DHT22;65929;49.062;10.338;2024-02-28T05:34:35;3.90;92.60
76996;DHT22;65929;49.062;10.338;2024-02-28T05:35:36;3.90;92.50
76996;DHT22;65929;49.062;10.338;2024-02-28T05:36:37;3.90;92.60
76996;DHT22;65929;49.062;10.338;2024-02-28T05:37:38;3.80;92.60
76996;DHT22;65929;49.062;10.338;2024-02-28T05:38:39;3.80;92.70
76996;DHT22;65929;49.062;10.338;2024-02-28T05:39:40;3.90;92.70
76996;DHT22;65929;49.062;10.338;2024-02-28T05:40:41;3.90;92.80
76996;DHT22;65929;49.062;10.338;2024-02-28T05:41:44;3.80;92.80
76996;DHT22;65929;49.062;10.338;2024-02-28T05:42:44;3.80;92.80
76996;DHT22;65929;49.062;10.338;2024-02-28T05:43:47;3.80;92.80
76996;DHT22;65929;49.062;10.338;2024-02-28T05:44:48;3.80;92.90
76996;DHT22;65929;49.062;10.338;2024-02-28T05:45:50;3.80;92.80
76996;DHT22;65929;49.062;10.338;2024-02-28T05:46:51;3.80;92.70
76996;DHT22;65929;49.062;10.338;2024-02-28T05:47:52;3.70;92.60
76996;DHT22;65929;49.062;10.338;2024-02-28T05:48:53;3.70;92.70
76996;DHT22;65929;49.062;10.338;2024-02-28T05:49:54;3.70;92.80
76996;DHT22;65929;49.062;10.338;2024-02-28T05:50:56;3.60;92.80
76996;DHT22;65929;49.062;10.338;2024-02-28T05:51:57;3.60;92.80
76996;DHT22;65929;49.062;10.338;2024-02-28T05:52:58;3.60;92.90
76996;DHT22;65929;49.062;10.338;2024-02-28T05:53:59;3.60;92.90
76996;DHT22;65929;49.062;10.338;2024-02-28T05:55:00;3.60;92.90
76996;DHT22;65929;49.062;10.338;2024-02-28T05:56:01;3.60;93.00
76996;DHT22;65929;49.062;10.338;2024-02-28T05:57:04;3.60;92.90
76996;DHT22;65929;49.062;10.338;2024-02-28T05:58:05;3.60;93.00
76996;DHT22;65929;49.062;10.338;2024-02-28T05:59:06;3.60;93.00
76996;DHT22;65929;49.062;10.338;2024-02-28T06:00:08;3.60;93.10
76996;DHT22;65929;49.062;10.338;2024-02-28T06:01:15;3.60;93.10
76996;DHT22;65929;49.062;10.338;2024-02-28T06:02:17;3.60;93.10
76996;DHT22;65929;49.062;10.338;2024-02-28T06:03:18;3.60;93.00
76996;DHT22;65929;49.062;10.338;2024-02-28T06:04:19;3.60;93.00
76996;DHT22;65929;49.062;10.338;2024-02-28T06:05:20;3.50;92.70
76996;DHT22;65929;49.062;10.338;2024-02-28T06:06:21;3.50;92.70
76996;DHT22;65929;49.062;10.338;2024-02-28T06:07:22;3.50;92.70
76996;DHT22;65929;49.062;10.338;2024-02-28T06:08:24;3.50;92.80
76996;DHT22;65929;49.062;10.338;2024-02-28T06:09:26;3.50;92.90
76996;DHT22;65929;49.062;10.338;2024-02-28T06:10:28;3.50;93.00
76996;DHT22;65929;49.062;10.338;2024-02-28T06:11:29;3.50;93.00
76996;DHT22;65929;49.062;10.338;2024-02-28T06:12:31;3.50;93.10
76996;DHT22;65929;49.062;10.338;2024-02-28T06:13:32;3.50;93.20
76996;DHT22;65929;49.062;10.338;2024-02-28T06:14:33;3.50;93.30
76996;DHT22;65929;49.062;10.338;2024-02-28T06:15:34;3.50;93.30
76996;DHT22;65929;49.062;10.338;2024-02-28T06:16:35;3.50;93.30
76996;DHT22;65929;49.062;10.338;2024-02-28T06:17:36;3.50;93.30
76996;DHT22;65929;49.062;10.338;2024-02-28T06:18:37;3.50;93.30
76996;DHT22;65929;49.062;10.338;2024-02-28T06:19:38;3.50;93.40
76996;DHT22;65929;49.062;10.338;2024-02-28T06:20:39;3.50;93.40
76996;DHT22;65929;49.062;10.338;2024-02-28T06:21:40;3.50;93.40
76996;DHT22;65929;49.062;10.338;2024-02-28T06:22:41;3.40;93.50
76996;DHT22;65929;49.062;10.338;2024-02-28T06:23:42;3.40;93.60
76996;DHT22;65929;49.062;10.338;2024-02-28T06:24:43;3.40;93.60
76996;DHT22;65929;49.062;10.338;2024-02-28T06:25:44;3.40;93.60
76996;DHT22;65929;49.062;10.338;2024-02-28T06:26:44;3.40;93.70
76996;DHT22;65929;49.062;10.338;2024-02-28T06:27:47;3.40;93.70
76996;DHT22;65929;49.062;10.338;2024-02-28T06:28:48;3.40;93.90
76996;DHT22;65929;49.062;10.338;2024-02-28T06:29:50;3.40;93.90
76996;DHT22;65929;49.062;10.338;2024-02-28T06:30:52;3.40;93.90
76996;DHT22;65929;49.062;10.338;2024-02-28T06:31:53;3.40;93.90
76996;DHT22;65929;49.062;10.338;2024-02-28T06:32:58;3.30;94.00
76996;DHT22;65929;49.062;10.338;2024-02-28T06:34:00;3.30;94.00
76996;DHT22;65929;49.062;10.338;2024-02-28T06:35:03;3.30;94.00
76996;DHT22;65929;49.062;10.338;2024-02-28T06:36:05;3.30;94.10